09:40
Airports
History
Links
Donate
Help keep this website running!
PayPal
Bitcoin
This page is community maintained. The information is intended for PC simulator navigation or reference.
Always use approved charts for navigation.
SC33
Cox
Cox (SC33)
Greenville, South Carolina, United States (29607)
4
Lat/Lng:34° 49' 27.43" N / 82° 15' 35.42" W
34.824285 / -82.259838
Elevation:1000'ft / 305mMSL
ID / ICAO:SC33
Runways:1
Longest:10-28
Grass 483m / 1,584ft
Nearby Weather09:27 GMT 2017-10-23
Nearby weather at KGMU, Greenville Downtown located 5.4 nautical miles from SC33
Altimeter: 30.07
Visibility: 2.0 statute miles
Wind: 0 knots (from 000°)
Temp: 19°c / 66°f
Humidity: 93.9%

METAR: KGMU 230927Z AUTO 00000KT 2SM +RA BR BKN005 OVC008 19/18 A3007 RMK AO2 CIG 003V007 P0008 T01890178

(Powered by phpweather)
Nearby VORs <50NM
Nearby NDBs
Runway 10 / 28
Dimensions:482.8 x 15.2m 1584' x 50'ft
Surface:Grass
Runway 10 [A]Runway 28 [B]
Heading:096°TH 276°TH
Lat:
Lng:
34° 49' 28.25"N
82° 15' 44.99"W
34° 49' 26.6"N
82° 15' 25.85"W
User Notes and Comments
34° 49' 27.43" N / 82° 15' 35.42" W
Distance To
Airport ID:
Nearby Airports
(R) Hartness 1.6 NM
SC58 NNE 16°
(C) Greenville Downtown 5.4 NM
KGMU ( WX ) WNW 287°
(C) Greenville Spartanburg Intl 5.5 NM
KGSP ( WX ) NNE 25°
(R) Parker Field 7.1 NM
SC47 SE 127°
(C) Donaldson Center 8.0 NM
KGYH SW 235°
4 Riverbend Airpark 8.1 NM
SC97 SSW 213°
(R) Green Pond 10.0 NM
SC39 E 93°
VFR Chart
Flight Planning at SkyVector.com